createdAt,value
2022-09-01T00:00:15.039Z,8.75
2022-09-01T00:02:44.158Z,9.52
2022-09-01T00:05:13.002Z,14.52
2022-09-01T00:07:40.848Z,9.50
2022-09-01T00:10:09.954Z,11.55
2022-09-01T00:12:38.533Z,5.70
2022-09-01T00:15:08.692Z,9.43
2022-09-01T00:17:36.406Z,5.88
2022-09-01T00:20:07.971Z,8.77
2022-09-01T00:22:38.589Z,13.68
2022-09-01T00:27:36.801Z,10.60
2022-09-01T00:30:05.285Z,13.18
2022-09-01T00:32:32.978Z,8.10
2022-09-01T00:35:00.588Z,7.82
2022-09-01T00:37:28.356Z,10.23
2022-09-01T00:39:55.961Z,11.27
2022-09-01T00:42:24.494Z,14.90
2022-09-01T00:44:52.158Z,8.73
2022-09-01T00:47:20.430Z,11.80
2022-09-01T00:49:51.574Z,13.10
2022-09-01T00:52:22.044Z,10.30
2022-09-01T00:57:19.120Z,11.30
2022-09-01T00:59:56.710Z,19.13
2022-09-01T01:02:24.806Z,10.52
2022-09-01T01:04:52.848Z,7.72
2022-09-01T01:07:23.113Z,13.48
2022-09-01T01:09:51.518Z,10.70
2022-09-01T01:12:20.252Z,13.05
2022-09-01T01:14:52.177Z,11.07
2022-09-01T01:17:22.593Z,8.43
2022-09-01T01:20:16.766Z,14.07
2022-09-01T01:23:02.987Z,11.73
2022-09-01T01:25:33.834Z,12.52
2022-09-01T01:28:14.326Z,9.02
2022-09-01T01:33:12.196Z,12.82
2022-09-01T01:35:42.479Z,14.70
2022-09-01T01:38:11.337Z,9.70
2022-09-01T01:40:39.628Z,11.73
2022-09-01T01:43:08.676Z,13.05
2022-09-01T01:45:36.500Z,14.65
2022-09-01T01:48:08.662Z,8.40
2022-09-01T01:50:38.046Z,14.02
2022-09-01T01:53:11.283Z,6.63
2022-09-01T01:55:41.928Z,5.90
2022-09-01T01:58:12.374Z,13.27
2022-09-01T02:00:44.814Z,7.53
2022-09-01T02:03:19.957Z,9.82
2022-09-01T02:05:53.061Z,10.98
2022-09-01T02:08:26.072Z,14.45
2022-09-01T02:10:55.573Z,10.73
2022-09-01T02:13:31.322Z,11.82
2022-09-01T02:16:04.449Z,7.72
2022-09-01T02:18:36.366Z,17.58
2022-09-01T02:21:10.592Z,11.00
2022-09-01T02:23:41.924Z,11.65
2022-09-01T02:26:16.675Z,13.35
2022-09-01T02:28:54.242Z,19.90
2022-09-01T02:31:28.186Z,7.95
2022-09-01T02:33:57.193Z,10.95
2022-09-01T02:36:25.779Z,9.48
2022-09-01T02:38:56.424Z,8.73
2022-09-01T02:41:25.329Z,6.45
2022-09-01T02:43:54.298Z,12.80
2022-09-01T02:46:24.532Z,17.33
2022-09-01T02:48:53.618Z,8.20
2022-09-01T02:51:25.682Z,9.60
2022-09-01T02:53:55.171Z,11.50
2022-09-01T02:56:25.760Z,11.98
2022-09-01T02:58:55.683Z,13.45
2022-09-01T03:01:29.666Z,9.23
2022-09-01T03:04:05.873Z,11.32
2022-09-01T03:06:37.907Z,13.65
2022-09-01T03:09:08.998Z,18.63
2022-09-01T03:11:41.377Z,8.20
2022-09-01T03:14:09.462Z,14.23
2022-09-01T03:16:39.394Z,11.20
2022-09-01T03:19:09.212Z,12.77
2022-09-01T03:21:40.964Z,12.98
2022-09-01T03:24:12.529Z,12.18
2022-09-01T03:26:42.714Z,14.73
2022-09-01T03:29:11.132Z,12.27
2022-09-01T03:31:39.194Z,20.92
2022-09-01T03:34:11.098Z,9.20
2022-09-01T03:36:50.406Z,15.05
2022-09-01T03:39:26.804Z,20.45
2022-09-01T03:41:56.665Z,12.07
2022-09-01T03:44:24.865Z,13.68
2022-09-01T03:46:53.610Z,20.75
2022-09-01T03:49:25.160Z,13.40
2022-09-01T03:51:54.041Z,19.92
2022-09-01T03:54:28.463Z,14.75
2022-09-01T03:56:58.164Z,14.27
2022-09-01T03:59:27.098Z,11.77
2022-09-01T04:01:54.962Z,15.50
2022-09-01T04:04:22.740Z,18.95
2022-09-01T04:06:50.738Z,16.92
2022-09-01T04:09:18.660Z,16.00
2022-09-01T04:11:46.980Z,14.98
2022-09-01T04:14:16.453Z,11.05
2022-09-01T04:17:04.337Z,17.02
2022-09-01T04:19:37.127Z,16.48
2022-09-01T04:22:07.889Z,13.82
2022-09-01T04:24:46.154Z,19.98
2022-09-01T04:27:15.448Z,12.73
2022-09-01T04:29:46.877Z,18.98
2022-09-01T04:34:49.009Z,12.45
2022-09-01T04:37:21.405Z,21.10
2022-09-01T04:39:57.700Z,12.10
2022-09-01T04:42:29.748Z,13.90
2022-09-01T04:45:02.077Z,14.98
2022-09-01T04:47:42.320Z,13.70
2022-09-01T04:50:14.887Z,12.20
2022-09-01T04:53:06.266Z,14.93
2022-09-01T04:55:44.290Z,12.95
2022-09-01T04:58:17.486Z,15.55
2022-09-01T05:00:52.273Z,18.35
2022-09-01T05:03:24.744Z,14.98
2022-09-01T05:06:19.605Z,13.50
2022-09-01T05:08:52.652Z,12.23
2022-09-01T05:11:50.233Z,10.88
2022-09-01T05:14:27.915Z,17.20
2022-09-01T05:17:02.439Z,14.15
2022-09-01T05:19:31.011Z,14.18
2022-09-01T05:22:01.032Z,20.30
2022-09-01T05:24:32.149Z,8.15
2022-09-01T05:27:05.233Z,10.55
2022-09-01T05:29:38.065Z,8.50
2022-09-01T05:32:10.199Z,10.00
2022-09-01T05:34:41.114Z,20.17
2022-09-01T05:37:09.686Z,16.67
2022-09-01T05:39:39.447Z,14.20
2022-09-01T05:42:08.581Z,13.82
2022-09-01T05:44:45.034Z,12.40
2022-09-01T05:47:20.375Z,10.05
2022-09-01T05:49:51.055Z,21.70
2022-09-01T05:52:26.426Z,10.90
2022-09-01T05:54:57.910Z,16.23
2022-09-01T05:57:35.086Z,13.80
2022-09-01T06:00:12.412Z,14.82
2022-09-01T06:02:43.749Z,16.45
2022-09-01T06:05:17.435Z,12.30
2022-09-01T06:07:47.271Z,14.30
2022-09-01T06:10:15.936Z,17.90
2022-09-01T06:12:48.664Z,15.60
2022-09-01T06:15:18.676Z,11.07
2022-09-01T06:17:53.661Z,15.98
2022-09-01T06:20:23.017Z,12.57
2022-09-01T06:22:53.226Z,12.40
2022-09-01T06:25:22.059Z,13.43
2022-09-01T06:27:52.483Z,11.75
2022-09-01T06:33:10.912Z,11.15
2022-09-01T06:35:43.957Z,14.95
2022-09-01T06:38:19.449Z,9.50
2022-09-01T06:40:51.062Z,15.43
2022-09-01T06:43:23.281Z,11.25
2022-09-01T06:45:54.881Z,9.45
2022-09-01T06:48:24.654Z,13.20
2022-09-01T06:51:20.972Z,16.75
2022-09-01T06:53:59.875Z,18.33
2022-09-01T06:56:41.618Z,14.15
2022-09-01T06:59:15.749Z,14.00
2022-09-01T07:01:50.923Z,15.57
2022-09-01T07:04:25.268Z,15.40
2022-09-01T07:07:00.477Z,14.68
2022-09-01T07:09:47.661Z,11.70
2022-09-01T07:12:32.166Z,14.52
2022-09-01T07:17:52.377Z,26.00
2022-09-01T07:23:12.603Z,11.63
2022-09-01T07:26:02.744Z,6.45
2022-09-01T07:28:37.918Z,20.80
2022-09-01T07:39:49.678Z,12.77
2022-09-01T07:42:32.105Z,11.15
2022-09-01T07:46:00.992Z,11.70
2022-09-01T07:51:38.098Z,18.75
2022-09-01T07:54:13.599Z,13.50
2022-09-01T07:56:41.777Z,13.27
2022-09-01T07:59:14.976Z,15.95
2022-09-01T08:04:34.129Z,11.48
2022-09-01T08:09:37.793Z,18.33
2022-09-01T08:12:08.773Z,14.02
2022-09-01T08:14:46.848Z,9.60
2022-09-01T08:17:18.394Z,16.63
2022-09-01T08:20:10.366Z,14.30
2022-09-01T08:23:08.543Z,13.43
2022-09-01T08:25:39.299Z,7.90
2022-09-01T08:28:07.882Z,13.00
2022-09-01T08:30:38.043Z,9.95
2022-09-01T08:33:13.181Z,15.52
2022-09-01T08:35:47.876Z,14.82
2022-09-01T08:38:16.678Z,15.93
2022-09-01T08:40:56.092Z,8.55
2022-09-01T08:43:38.648Z,16.10
2022-09-01T08:46:28.660Z,14.10
2022-09-01T08:52:25.497Z,9.40
2022-09-01T08:55:09.588Z,10.33
2022-09-01T08:57:39.689Z,10.18
2022-09-01T09:00:37.066Z,12.27
2022-09-01T09:03:43.608Z,14.70
2022-09-01T09:08:56.808Z,14.45
2022-09-01T09:11:42.818Z,14.60
2022-09-01T09:14:14.659Z,14.57
2022-09-01T09:16:51.622Z,12.60
2022-09-01T09:19:26.553Z,18.02
2022-09-01T09:21:57.293Z,12.75
2022-09-01T09:24:56.387Z,12.82
2022-09-01T09:27:32.459Z,17.33
2022-09-01T09:30:12.998Z,9.70
2022-09-01T09:35:54.469Z,10.60
2022-09-01T09:38:33.763Z,16.63
2022-09-01T09:41:26.934Z,16.38
2022-09-01T09:44:16.467Z,13.43
2022-09-01T09:46:47.741Z,8.48
2022-09-01T09:49:36.359Z,12.43
2022-09-01T09:52:08.766Z,10.70
2022-09-01T09:54:39.032Z,9.77
2022-09-01T09:57:13.903Z,11.60
2022-09-01T10:00:00.726Z,12.75
2022-09-01T10:02:38.389Z,11.82
2022-09-01T10:05:34.583Z,15.02
2022-09-01T10:08:05.596Z,8.73
2022-09-01T10:10:42.417Z,14.50
2022-09-01T10:13:22.625Z,15.38
2022-09-01T10:15:53.353Z,8.15
2022-09-01T10:18:29.727Z,20.05
2022-09-01T10:21:00.689Z,7.70
2022-09-01T10:23:31.328Z,14.13
2022-09-01T10:26:14.053Z,13.35
2022-09-01T10:29:35.151Z,10.20
2022-09-01T10:32:34.720Z,11.90
2022-09-01T10:35:03.285Z,9.23
2022-09-01T10:37:38.484Z,10.73
2022-09-01T10:40:32.113Z,7.53
2022-09-01T10:43:22.741Z,7.63
2022-09-01T10:45:57.650Z,7.90
2022-09-01T10:48:46.285Z,9.57
2022-09-01T10:51:21.089Z,6.47
2022-09-01T10:54:03.446Z,10.52
2022-09-01T10:56:44.270Z,15.77
2022-09-01T10:59:31.448Z,8.80
2022-09-01T11:02:23.626Z,12.18
2022-09-01T11:05:00.420Z,6.53
2022-09-01T11:07:57.950Z,14.48
2022-09-01T11:10:39.752Z,10.82
2022-09-01T11:13:26.327Z,14.05
2022-09-01T11:16:00.303Z,8.80
2022-09-01T11:18:36.795Z,16.15
2022-09-01T11:21:28.583Z,13.13
2022-09-01T11:24:37.814Z,9.07
2022-09-01T11:27:07.070Z,11.43
2022-09-01T11:30:10.359Z,11.57
2022-09-01T11:32:46.302Z,14.88
2022-09-01T11:35:23.425Z,9.27
2022-09-01T11:37:55.014Z,7.72
2022-09-01T11:40:32.774Z,8.85
2022-09-01T11:43:12.997Z,14.27
2022-09-01T11:45:54.905Z,11.07
2022-09-01T11:48:24.919Z,9.85
2022-09-01T11:51:02.598Z,7.38
2022-09-01T11:53:31.084Z,10.05
2022-09-01T11:56:14.750Z,8.85
2022-09-01T11:58:42.575Z,12.77
2022-09-01T12:01:20.181Z,19.40
2022-09-01T12:06:29.700Z,9.57
2022-09-01T12:09:00.186Z,10.13
2022-09-01T12:11:31.728Z,14.38
2022-09-01T12:14:11.773Z,7.88
2022-09-01T12:16:45.656Z,9.55
2022-09-01T12:19:30.093Z,13.95
2022-09-01T12:22:13.627Z,7.72
2022-09-01T12:24:47.189Z,5.75
2022-09-01T12:27:15.296Z,7.57
2022-09-01T12:29:43.842Z,8.52
2022-09-01T12:32:13.793Z,12.82
2022-09-01T12:34:41.961Z,6.22
2022-09-01T12:37:27.413Z,9.85
2022-09-01T12:39:59.450Z,8.27
2022-09-01T12:42:32.441Z,10.52
2022-09-01T12:45:11.123Z,5.95
2022-09-01T12:47:48.122Z,8.90
2022-09-01T12:50:17.134Z,8.43
2022-09-01T12:52:55.682Z,13.52
2022-09-01T12:58:25.740Z,4.85
2022-09-01T13:01:01.612Z,10.50
2022-09-01T13:03:30.049Z,9.43
2022-09-01T13:06:00.214Z,8.77
2022-09-01T13:11:11.339Z,10.82
2022-09-01T13:13:39.500Z,6.80
2022-09-01T13:16:14.380Z,8.80
2022-09-01T13:21:33.777Z,10.68
2022-09-01T13:24:07.216Z,9.60
2022-09-01T13:26:35.477Z,8.80
2022-09-01T13:29:03.571Z,8.45
2022-09-01T13:31:32.105Z,11.55
2022-09-01T13:34:22.407Z,10.07
2022-09-01T13:36:52.047Z,8.40
2022-09-01T13:39:22.725Z,8.85
2022-09-01T13:41:50.574Z,9.65
2022-09-01T13:44:18.812Z,5.72
2022-09-01T13:49:44.582Z,5.32
2022-09-01T13:52:22.543Z,7.50
2022-09-01T13:54:50.192Z,9.52
2022-09-01T13:57:17.958Z,14.07
2022-09-01T13:59:45.635Z,9.60
2022-09-01T14:02:13.327Z,9.00
2022-09-01T14:04:41.090Z,11.10
2022-09-01T14:07:08.859Z,7.38
2022-09-01T14:09:37.852Z,6.82
2022-09-01T14:12:05.660Z,8.75
2022-09-01T14:17:24.685Z,3.72
2022-09-01T14:19:52.709Z,5.82
2022-09-01T14:22:20.553Z,10.38
2022-09-01T14:24:48.264Z,8.07
2022-09-01T14:27:16.522Z,9.30
2022-09-01T14:29:50.545Z,8.23
2022-09-01T14:32:27.293Z,8.85
2022-09-01T14:34:55.942Z,6.05
2022-09-01T14:37:24.846Z,12.65
2022-09-01T14:39:54.604Z,4.93
2022-09-01T14:42:25.873Z,11.27
2022-09-01T14:44:53.683Z,9.52
2022-09-01T14:47:22.265Z,6.93
2022-09-01T14:49:50.283Z,11.35
2022-09-01T14:52:18.880Z,11.13
2022-09-01T14:54:46.894Z,8.20
2022-09-01T14:57:37.681Z,7.30
2022-09-01T15:00:15.945Z,6.53
2022-09-01T15:02:44.633Z,10.32
2022-09-01T15:05:13.535Z,7.95
2022-09-01T15:07:42.115Z,8.27
2022-09-01T15:10:16.181Z,7.38
2022-09-01T15:12:56.727Z,13.25
2022-09-01T15:15:25.630Z,8.82
2022-09-01T15:17:53.701Z,8.40
2022-09-01T15:20:40.548Z,14.00
2022-09-01T15:23:08.505Z,9.68
2022-09-01T15:25:36.404Z,9.40
2022-09-01T15:28:06.138Z,8.65
2022-09-01T15:30:34.440Z,4.00
2022-09-01T15:33:02.350Z,7.90
2022-09-01T15:35:30.359Z,7.93
2022-09-01T15:37:58.305Z,9.00
2022-09-01T15:40:27.006Z,12.35
2022-09-01T15:42:56.648Z,10.88
2022-09-01T15:45:25.443Z,8.98
2022-09-01T15:47:53.202Z,9.02
2022-09-01T15:50:23.340Z,12.85
2022-09-01T15:53:08.516Z,9.50
2022-09-01T15:55:44.975Z,8.25
2022-09-01T15:58:15.944Z,6.70
2022-09-01T16:00:45.046Z,11.52
2022-09-01T16:03:13.235Z,10.63
2022-09-01T16:05:41.521Z,11.07
2022-09-01T16:08:11.631Z,14.77
2022-09-01T16:10:42.630Z,8.32
2022-09-01T16:13:11.849Z,12.38
2022-09-01T16:15:51.652Z,11.13
2022-09-01T16:18:43.981Z,10.00
2022-09-01T16:21:22.892Z,9.50
2022-09-01T16:23:52.595Z,8.75
2022-09-01T16:26:23.223Z,17.55
2022-09-01T16:28:55.322Z,12.38
2022-09-01T16:31:32.345Z,10.43
2022-09-01T16:34:09.383Z,9.25
2022-09-01T16:36:57.399Z,14.73
2022-09-01T16:39:48.560Z,9.50
2022-09-01T16:42:18.882Z,7.75
2022-09-01T16:45:03.887Z,16.13
2022-09-01T16:48:05.383Z,25.30
2022-09-01T16:50:40.239Z,11.35
2022-09-01T16:53:45.290Z,14.13
2022-09-01T16:56:54.007Z,11.40
2022-09-01T16:59:32.525Z,16.63
2022-09-01T17:02:15.996Z,13.82
2022-09-01T17:04:49.659Z,8.00
2022-09-01T17:07:26.406Z,18.63
2022-09-01T17:10:06.905Z,14.60
2022-09-01T17:12:43.664Z,16.85
2022-09-01T17:15:16.389Z,15.13
2022-09-01T17:17:55.378Z,12.50
2022-09-01T17:20:28.192Z,13.52
2022-09-01T17:22:59.178Z,13.52
2022-09-01T17:25:32.728Z,16.48
2022-09-01T17:28:28.311Z,19.05
2022-09-01T17:31:42.577Z,10.00
2022-09-01T17:34:40.978Z,15.93
2022-09-01T17:37:14.580Z,18.77
2022-09-01T17:39:59.331Z,16.63
2022-09-01T17:42:57.583Z,17.58
2022-09-01T17:45:31.061Z,16.00
2022-09-01T17:48:18.417Z,15.90
2022-09-01T17:51:06.487Z,10.68
2022-09-01T17:53:39.879Z,14.85
2022-09-01T17:56:25.223Z,19.85
2022-09-01T17:59:22.648Z,21.02
2022-09-01T18:02:11.175Z,21.50
2022-09-01T18:05:03.455Z,22.55
2022-09-01T18:08:16.706Z,16.88
2022-09-01T18:10:50.532Z,15.57
2022-09-01T18:13:52.969Z,11.65
2022-09-01T18:16:31.127Z,18.50
2022-09-01T18:19:06.605Z,17.00
2022-09-01T18:21:45.245Z,12.80
2022-09-01T18:24:18.834Z,17.23
2022-09-01T18:26:51.203Z,17.80
2022-09-01T18:29:19.592Z,11.85
2022-09-01T18:32:31.320Z,20.40
2022-09-01T18:35:26.789Z,21.38
2022-09-01T18:37:54.345Z,18.27
2022-09-01T18:40:38.558Z,17.90
2022-09-01T18:43:45.295Z,21.60
2022-09-01T18:46:30.069Z,19.33
2022-09-01T18:49:06.566Z,19.88
2022-09-01T18:51:53.161Z,20.08
2022-09-01T18:54:50.058Z,23.90
2022-09-01T18:57:21.276Z,17.75
2022-09-01T19:00:18.709Z,20.60
2022-09-01T19:03:27.673Z,19.15
2022-09-01T19:06:24.422Z,18.88
2022-09-01T19:08:52.217Z,17.85
2022-09-01T19:11:40.372Z,19.17
2022-09-01T19:14:33.959Z,23.02
2022-09-01T19:17:29.243Z,21.85
2022-09-01T19:20:01.667Z,25.25
2022-09-01T19:23:08.784Z,16.73
2022-09-01T19:25:39.567Z,17.38
2022-09-01T19:28:07.877Z,16.75
2022-09-01T19:30:42.589Z,17.58
2022-09-01T19:33:14.592Z,16.88
2022-09-01T19:35:45.554Z,18.92
2022-09-01T19:38:18.947Z,16.55
2022-09-01T19:40:52.669Z,14.35
2022-09-01T19:43:21.190Z,15.30
2022-09-01T19:46:03.972Z,16.45
2022-09-01T19:48:52.527Z,11.60
2022-09-01T19:51:24.252Z,17.48
2022-09-01T19:53:56.124Z,16.77
2022-09-01T19:56:37.558Z,17.20
2022-09-01T19:59:37.397Z,13.90
2022-09-01T20:02:50.506Z,12.77
2022-09-01T20:05:35.348Z,16.77
2022-09-01T20:08:13.576Z,13.23
2022-09-01T20:10:58.173Z,18.27
2022-09-01T20:13:46.998Z,16.33
2022-09-01T20:16:41.900Z,10.85
2022-09-01T20:19:18.802Z,12.48
2022-09-01T20:21:48.083Z,13.25
2022-09-01T20:24:28.035Z,14.10
2022-09-01T20:27:24.345Z,9.85
2022-09-01T20:30:09.546Z,13.05
2022-09-01T20:32:41.699Z,11.10
2022-09-01T20:35:36.297Z,18.40
2022-09-01T20:38:48.915Z,21.80
2022-09-01T20:41:46.155Z,12.40
2022-09-01T20:44:22.367Z,13.70
2022-09-01T20:46:51.972Z,11.98
2022-09-01T20:49:19.926Z,10.93
2022-09-01T20:51:51.800Z,13.73
2022-09-01T20:54:31.820Z,19.10
2022-09-01T20:57:08.645Z,12.25
2022-09-01T20:59:46.372Z,17.77
2022-09-01T21:02:35.802Z,12.75
2022-09-01T21:05:04.823Z,12.18
2022-09-01T21:07:59.310Z,15.18
2022-09-01T21:10:32.574Z,22.77
2022-09-01T21:13:15.284Z,15.65
2022-09-01T21:16:08.645Z,16.88
2022-09-01T21:18:53.158Z,17.50
2022-09-01T21:21:29.297Z,15.32
2022-09-01T21:23:57.049Z,17.52
2022-09-01T21:26:24.755Z,17.40
2022-09-01T21:28:55.425Z,16.80
2022-09-01T21:31:24.434Z,20.33
2022-09-01T21:33:52.505Z,17.98
2022-09-01T21:36:20.292Z,22.25
2022-09-01T21:38:51.057Z,23.50
2022-09-01T21:41:18.685Z,21.10
2022-09-01T21:43:46.835Z,19.00
2022-09-01T21:46:16.534Z,22.15
2022-09-01T21:48:44.546Z,20.77
2022-09-01T21:51:12.597Z,25.00
2022-09-01T21:53:43.642Z,27.05
2022-09-01T21:56:11.303Z,25.75
2022-09-01T21:58:39.651Z,27.83
2022-09-01T22:01:10.648Z,25.13
2022-09-01T22:03:42.001Z,26.20
2022-09-01T22:06:15.810Z,29.13
2022-09-01T22:08:43.501Z,27.58
2022-09-01T22:11:11.761Z,25.75
2022-09-01T22:13:39.435Z,28.08
2022-09-01T22:16:07.367Z,29.30
2022-09-01T22:18:35.071Z,24.30
2022-09-01T22:21:08.007Z,30.75
2022-09-01T22:23:36.122Z,27.50
2022-09-01T22:26:05.039Z,25.25
2022-09-01T22:28:32.838Z,25.88
2022-09-01T22:31:01.154Z,29.75
2022-09-01T22:33:29.674Z,32.10
2022-09-01T22:35:58.369Z,28.73
2022-09-01T22:38:26.119Z,36.03
2022-09-01T22:40:57.528Z,34.92
2022-09-01T22:43:27.075Z,30.17
2022-09-01T22:45:56.407Z,28.65
2022-09-01T22:48:27.144Z,34.67
2022-09-01T22:50:54.845Z,32.90
2022-09-01T22:53:22.887Z,32.17
2022-09-01T22:55:51.854Z,33.55
2022-09-01T22:58:20.313Z,32.17
2022-09-01T23:00:53.877Z,30.25
2022-09-01T23:03:22.589Z,25.73
2022-09-01T23:05:50.592Z,32.30
2022-09-01T23:08:18.256Z,33.30
2022-09-01T23:10:46.102Z,27.52
2022-09-01T23:13:13.959Z,29.65
2022-09-01T23:15:42.365Z,27.25
2022-09-01T23:18:10.273Z,33.35
2022-09-01T23:20:38.001Z,31.75
2022-09-01T23:23:06.057Z,33.42
2022-09-01T23:25:34.097Z,30.23
2022-09-01T23:28:02.425Z,29.52
2022-09-01T23:30:30.149Z,30.45
2022-09-01T23:32:58.140Z,27.52
2022-09-01T23:35:26.802Z,26.35
2022-09-01T23:37:54.956Z,26.98
2022-09-01T23:40:22.624Z,25.13
2022-09-01T23:42:50.291Z,28.80
2022-09-01T23:45:18.088Z,28.58
2022-09-01T23:47:45.722Z,24.83
2022-09-01T23:50:13.475Z,25.13
2022-09-01T23:52:41.161Z,22.33
2022-09-01T23:55:09.489Z,23.73
2022-09-01T23:57:37.442Z,22.00
